createdAt,value
2023-03-20T00:02:30.034Z,61.16
2023-03-20T00:05:23.678Z,61.10
2023-03-20T00:08:10.894Z,61.60
2023-03-20T00:10:59.109Z,61.69
2023-03-20T00:13:45.707Z,61.80
2023-03-20T00:16:35.232Z,61.90
2023-03-20T00:19:31.832Z,61.87
2023-03-20T00:22:18.389Z,61.86
2023-03-20T00:25:06.359Z,61.93
2023-03-20T00:27:53.347Z,61.99
2023-03-20T00:30:40.751Z,62.20
2023-03-20T00:33:27.190Z,62.38
2023-03-20T00:36:13.680Z,62.84
2023-03-20T00:39:00.370Z,62.94
2023-03-20T00:41:56.145Z,63.11
2023-03-20T00:45:11.584Z,63.12
2023-03-20T00:48:16.706Z,63.68
2023-03-20T00:51:03.420Z,64.42
2023-03-20T00:53:49.916Z,64.62
2023-03-20T01:03:02.984Z,65.13
2023-03-20T01:05:51.095Z,65.54
2023-03-20T01:08:37.982Z,65.25
2023-03-20T01:11:24.932Z,64.93
2023-03-20T01:14:15.810Z,65.06
2023-03-20T01:17:03.087Z,65.05
2023-03-20T01:19:50.408Z,65.31
2023-03-20T01:22:36.693Z,65.18
2023-03-20T01:25:23.941Z,65.60
2023-03-20T01:28:20.959Z,65.85
2023-03-20T01:31:09.574Z,66.05
2023-03-20T01:33:56.337Z,66.17
2023-03-20T01:36:48.511Z,65.84
2023-03-20T01:39:36.995Z,66.38
2023-03-20T01:42:24.152Z,66.79
2023-03-20T01:45:18.068Z,66.75
2023-03-20T01:48:18.724Z,66.82
2023-03-20T01:51:05.594Z,66.79
2023-03-20T01:53:59.793Z,66.91
2023-03-20T01:57:08.467Z,67.54
2023-03-20T02:00:06.175Z,67.61
2023-03-20T02:02:53.405Z,68.13
2023-03-20T02:05:40.271Z,68.51
2023-03-20T02:08:31.860Z,68.59
2023-03-20T02:11:22.782Z,68.54
2023-03-20T02:14:10.359Z,68.29
2023-03-20T02:16:57.060Z,68.79
2023-03-20T02:19:54.128Z,68.50
2023-03-20T02:22:51.765Z,68.82
2023-03-20T02:26:02.958Z,69.00
2023-03-20T02:29:24.153Z,68.89
2023-03-20T02:32:41.852Z,69.11
2023-03-20T02:35:50.036Z,69.03
2023-03-20T02:39:03.696Z,69.54
2023-03-20T02:42:12.315Z,69.62
2023-03-20T02:45:14.483Z,69.60
2023-03-20T02:48:16.501Z,69.88
2023-03-20T02:51:19.967Z,70.05
2023-03-20T02:54:13.512Z,70.00
2023-03-20T02:57:16.720Z,70.15
2023-03-20T03:00:17.508Z,70.57
2023-03-20T03:03:27.582Z,70.59
2023-03-20T03:06:37.631Z,70.54
2023-03-20T03:09:29.566Z,70.83
2023-03-20T03:12:20.725Z,71.06
2023-03-20T03:15:15.596Z,71.27
2023-03-20T03:18:06.558Z,71.76
2023-03-20T03:20:58.363Z,71.81
2023-03-20T03:23:49.705Z,71.60
2023-03-20T03:26:39.926Z,71.56
2023-03-20T03:29:31.532Z,71.58
2023-03-20T03:32:39.298Z,71.46
2023-03-20T03:35:26.270Z,72.07
2023-03-20T03:38:34.082Z,72.52
2023-03-20T03:41:25.847Z,73.01
2023-03-20T03:44:35.472Z,72.53
2023-03-20T03:47:27.488Z,73.11
2023-03-20T03:50:19.323Z,73.13
2023-03-20T03:53:10.899Z,73.50
2023-03-20T03:56:02.782Z,73.24
2023-03-20T03:58:54.504Z,73.24
2023-03-20T04:01:44.450Z,73.53
2023-03-20T04:04:33.365Z,73.77
2023-03-20T04:07:20.530Z,73.30
2023-03-20T04:10:07.704Z,73.47
2023-03-20T04:12:54.193Z,73.62
2023-03-20T04:15:40.731Z,73.42
2023-03-20T04:18:27.395Z,73.48
2023-03-20T04:21:16.117Z,73.94
2023-03-20T04:24:03.449Z,74.27
2023-03-20T04:26:50.072Z,74.84
2023-03-20T04:29:39.213Z,74.92
2023-03-20T04:32:26.032Z,75.00
2023-03-20T04:35:12.891Z,75.24
2023-03-20T04:37:59.708Z,75.35
2023-03-20T04:40:47.321Z,75.45
2023-03-20T04:43:34.078Z,75.38
2023-03-20T04:46:20.670Z,75.38
2023-03-20T04:49:07.386Z,75.58
2023-03-20T04:51:54.497Z,75.96
2023-03-20T04:54:41.203Z,76.20
2023-03-20T04:57:28.542Z,75.91
2023-03-20T05:00:15.502Z,75.92
2023-03-20T05:03:02.219Z,75.94
2023-03-20T05:05:49.108Z,76.06
2023-03-20T05:08:35.690Z,75.93
2023-03-20T05:11:22.837Z,75.99
2023-03-20T05:14:10.100Z,75.89
2023-03-20T05:16:56.576Z,75.51
2023-03-20T05:19:43.190Z,75.00
2023-03-20T05:22:30.097Z,74.96
2023-03-20T05:25:16.663Z,74.98
2023-03-20T05:28:03.165Z,74.86
2023-03-20T05:30:50.697Z,74.94
2023-03-20T05:33:38.286Z,74.72
2023-03-20T05:36:24.699Z,73.94
2023-03-20T05:39:11.720Z,72.59
2023-03-20T05:42:00.614Z,70.98
2023-03-20T05:44:47.308Z,70.06
2023-03-20T05:47:33.816Z,69.91
2023-03-20T05:50:20.560Z,68.99
2023-03-20T05:53:07.580Z,68.51
2023-03-20T05:55:54.376Z,67.95
2023-03-20T05:58:42.404Z,67.86
2023-03-20T06:01:28.965Z,67.99
2023-03-20T06:04:16.050Z,66.41
2023-03-20T06:07:03.193Z,65.60
2023-03-20T06:09:52.152Z,64.85
2023-03-20T06:12:39.203Z,63.80
2023-03-20T06:15:25.984Z,63.59
2023-03-20T06:18:13.360Z,63.89
2023-03-20T06:21:02.283Z,63.00
2023-03-20T06:23:49.680Z,62.21
2023-03-20T06:26:36.731Z,59.97
2023-03-20T06:29:23.658Z,57.81
2023-03-20T06:32:12.592Z,56.13
2023-03-20T06:34:59.631Z,55.81
2023-03-20T06:37:46.470Z,55.62
2023-03-20T06:40:33.066Z,54.51
2023-03-20T06:43:21.572Z,54.22
2023-03-20T06:46:10.609Z,54.60
2023-03-20T06:49:01.970Z,54.43
2023-03-20T06:51:48.888Z,52.77
2023-03-20T06:54:35.568Z,50.24
2023-03-20T06:57:22.335Z,50.32
2023-03-20T07:00:10.380Z,50.12
2023-03-20T07:02:57.236Z,49.81
2023-03-20T07:05:44.940Z,48.71
2023-03-20T07:08:33.529Z,47.43
2023-03-20T07:11:22.548Z,46.73
2023-03-20T07:14:09.162Z,46.30
2023-03-20T07:16:56.732Z,44.92
2023-03-20T07:19:43.535Z,44.16
2023-03-20T07:22:31.698Z,44.59
2023-03-20T07:25:23.994Z,45.16
2023-03-20T07:28:20.101Z,45.98
2023-03-20T07:31:07.092Z,46.41
2023-03-20T07:33:53.558Z,46.41
2023-03-20T07:36:43.803Z,46.14
2023-03-20T07:39:32.264Z,45.73
2023-03-20T07:42:19.088Z,45.22
2023-03-20T07:45:06.919Z,44.63
2023-03-20T07:47:53.749Z,43.71
2023-03-20T07:50:40.627Z,43.84
2023-03-20T07:53:27.960Z,43.91
2023-03-20T07:56:14.459Z,44.52
2023-03-20T07:59:01.486Z,44.01
2023-03-20T08:01:48.295Z,43.69
2023-03-20T08:04:35.626Z,42.96
2023-03-20T08:07:22.621Z,41.90
2023-03-20T08:10:11.257Z,40.63
2023-03-20T08:13:00.666Z,39.87
2023-03-20T08:15:52.004Z,38.66
2023-03-20T08:22:50.896Z,38.60
2023-03-20T08:25:38.978Z,38.08
2023-03-20T08:32:48.931Z,37.65
2023-03-20T08:35:38.050Z,37.10
2023-03-20T08:38:31.697Z,36.94
2023-03-20T08:41:22.683Z,35.90
2023-03-20T08:44:09.425Z,35.51
2023-03-20T08:46:56.638Z,35.50
2023-03-20T08:49:44.042Z,35.58
2023-03-20T08:52:30.925Z,35.38
2023-03-20T08:55:18.180Z,35.75
2023-03-20T08:58:05.996Z,35.70
2023-03-20T09:07:31.476Z,34.73
2023-03-20T09:10:17.590Z,35.19
2023-03-20T09:13:25.696Z,33.95
2023-03-20T09:16:16.536Z,33.15
2023-03-20T09:19:02.312Z,32.77
2023-03-20T09:21:48.396Z,32.44
2023-03-20T09:24:37.003Z,31.86
2023-03-20T09:27:22.524Z,30.08
2023-03-20T09:30:09.777Z,30.03
2023-03-20T09:32:57.088Z,29.43
2023-03-20T09:35:49.102Z,29.58
2023-03-20T09:38:34.865Z,31.02
2023-03-20T09:41:23.878Z,32.24
2023-03-20T09:44:20.541Z,32.63
2023-03-20T09:47:21.489Z,32.38
2023-03-20T09:50:27.203Z,32.26
2023-03-20T09:53:31.880Z,31.70
2023-03-20T09:56:24.724Z,31.79
2023-03-20T09:59:15.573Z,31.68
2023-03-20T10:02:40.766Z,32.28
2023-03-20T10:05:33.469Z,32.43
2023-03-20T10:08:23.378Z,33.90
2023-03-20T10:11:42.511Z,34.04
2023-03-20T10:14:52.894Z,33.98
2023-03-20T10:17:56.948Z,33.75
2023-03-20T10:21:23.614Z,32.26
2023-03-20T10:24:35.751Z,32.07
2023-03-20T10:27:43.447Z,32.43
2023-03-20T10:30:53.081Z,33.96
2023-03-20T10:34:00.540Z,33.95
2023-03-20T10:37:01.306Z,34.09
2023-03-20T10:40:27.389Z,34.35
2023-03-20T10:43:40.962Z,34.95
2023-03-20T10:46:32.740Z,34.43
2023-03-20T10:49:42.290Z,34.79
2023-03-20T10:52:37.757Z,36.31
2023-03-20T10:55:34.847Z,36.67
2023-03-20T11:04:45.070Z,35.85
2023-03-20T11:08:02.058Z,37.40
2023-03-20T11:11:14.636Z,38.36
2023-03-20T11:14:38.537Z,38.76
2023-03-20T11:18:08.430Z,39.15
2023-03-20T11:20:58.726Z,38.39
2023-03-20T11:23:44.311Z,39.11
2023-03-20T11:26:45.802Z,39.19
2023-03-20T11:29:36.026Z,38.63
2023-03-20T11:32:43.131Z,37.41
2023-03-20T11:35:32.985Z,37.99
2023-03-20T11:42:02.388Z,38.32
2023-03-20T11:45:01.797Z,35.18
2023-03-20T11:47:53.288Z,33.88
2023-03-20T11:50:49.511Z,32.22
2023-03-20T11:53:43.378Z,30.67
2023-03-20T12:09:40.201Z,30.44
2023-03-20T12:13:09.946Z,32.58
2023-03-20T12:16:09.254Z,33.02
2023-03-20T12:19:02.667Z,32.95
2023-03-20T12:22:04.636Z,32.59
2023-03-20T12:25:20.778Z,34.05
2023-03-20T12:28:29.575Z,35.44
2023-03-20T12:31:33.136Z,36.00
2023-03-20T12:34:29.496Z,37.49
2023-03-20T12:37:18.610Z,38.05
2023-03-20T12:40:08.185Z,38.45
2023-03-20T12:43:21.943Z,37.99
2023-03-20T12:46:28.858Z,37.87
2023-03-20T12:49:36.471Z,38.22
2023-03-20T12:52:37.322Z,38.82
2023-03-20T12:55:29.649Z,39.21
2023-03-20T12:58:44.999Z,39.72
2023-03-20T13:01:36.724Z,39.56
2023-03-20T13:04:51.588Z,38.44
2023-03-20T13:07:56.742Z,38.95
2023-03-20T13:10:55.215Z,40.52
2023-03-20T13:14:32.341Z,41.12
2023-03-20T13:18:03.784Z,41.53
2023-03-20T13:20:56.993Z,43.23
2023-03-20T13:24:17.048Z,44.04
2023-03-20T13:27:21.521Z,44.40
2023-03-20T13:30:39.801Z,45.62
2023-03-20T13:34:16.377Z,46.33
2023-03-20T13:37:37.948Z,46.75
2023-03-20T13:41:02.145Z,46.71
2023-03-20T13:44:04.818Z,45.81
2023-03-20T13:47:11.354Z,45.94
2023-03-20T13:50:33.527Z,47.06
2023-03-20T13:53:59.505Z,48.99
2023-03-20T13:57:23.032Z,50.00
2023-03-20T14:12:19.335Z,52.47
2023-03-20T14:15:52.181Z,54.73
2023-03-20T14:18:47.101Z,55.85
2023-03-20T14:21:34.404Z,57.11
2023-03-20T14:24:21.607Z,57.62
2023-03-20T14:27:16.801Z,58.49
2023-03-20T14:30:30.646Z,58.71
2023-03-20T14:33:16.235Z,59.91
2023-03-20T14:36:11.022Z,61.96
2023-03-20T14:39:17.941Z,63.50
2023-03-20T14:42:36.846Z,63.83
2023-03-20T14:45:29.834Z,64.54
2023-03-20T14:48:33.422Z,64.53
2023-03-20T14:51:41.160Z,64.92
2023-03-20T14:54:30.919Z,65.54
2023-03-20T14:57:35.708Z,65.58
2023-03-20T15:00:30.370Z,65.86
2023-03-20T15:03:17.046Z,65.42
2023-03-20T15:06:05.654Z,64.49
2023-03-20T15:08:56.178Z,63.58
2023-03-20T15:11:43.264Z,63.07
2023-03-20T15:14:38.818Z,63.33
2023-03-20T15:17:47.576Z,64.52
2023-03-20T15:20:37.134Z,65.10
2023-03-20T15:23:26.398Z,65.53
2023-03-20T15:26:19.675Z,66.29
2023-03-20T15:29:11.232Z,67.82
2023-03-20T15:32:13.318Z,70.38
2023-03-20T15:35:02.576Z,72.40
2023-03-20T15:37:51.526Z,72.77
2023-03-20T15:40:50.737Z,73.01
2023-03-20T15:43:41.216Z,73.42
2023-03-20T15:46:27.922Z,73.06
2023-03-20T15:49:18.731Z,72.39
2023-03-20T15:52:19.557Z,71.70
2023-03-20T15:55:11.919Z,71.47
2023-03-20T15:58:02.186Z,71.34
2023-03-20T16:00:50.429Z,71.28
2023-03-20T16:03:38.835Z,71.39
2023-03-20T16:06:29.806Z,71.79
2023-03-20T16:09:17.964Z,71.98
2023-03-20T16:12:17.556Z,72.79
2023-03-20T16:15:09.062Z,73.83
2023-03-20T16:17:59.253Z,74.06
2023-03-20T16:20:58.255Z,73.97
2023-03-20T16:23:49.176Z,75.10
2023-03-20T16:26:41.576Z,75.94
2023-03-20T16:29:30.659Z,76.38
2023-03-20T16:32:28.061Z,76.24
2023-03-20T16:35:17.987Z,77.75
2023-03-20T16:38:17.132Z,80.52
2023-03-20T16:41:15.699Z,83.05
2023-03-20T16:44:19.728Z,85.85
2023-03-20T16:47:06.500Z,87.99
2023-03-20T16:50:26.508Z,89.21
2023-03-20T16:53:21.763Z,89.78
2023-03-20T16:56:29.416Z,90.82
2023-03-20T16:59:19.303Z,90.71
2023-03-20T17:02:24.498Z,91.44
2023-03-20T17:05:13.609Z,91.29
2023-03-20T17:08:09.460Z,90.64
2023-03-20T17:10:59.890Z,90.15
2023-03-20T17:13:48.822Z,91.12
2023-03-20T17:16:36.760Z,90.98
2023-03-20T17:27:18.210Z,91.69
2023-03-20T17:30:11.695Z,91.67
2023-03-20T17:32:58.988Z,91.63
2023-03-20T17:35:46.239Z,91.36
2023-03-20T17:38:33.005Z,91.65
2023-03-20T17:41:20.783Z,91.93
2023-03-20T17:44:08.982Z,91.09
2023-03-20T17:46:59.218Z,90.75
2023-03-20T17:49:46.873Z,90.57
2023-03-20T17:52:33.594Z,90.25
2023-03-20T17:55:20.664Z,90.14
2023-03-20T17:58:14.078Z,90.08
2023-03-20T18:01:00.804Z,90.22
2023-03-20T18:03:47.463Z,89.98
2023-03-20T18:06:34.175Z,90.02
2023-03-20T18:09:21.115Z,90.22
2023-03-20T18:12:15.057Z,90.10
2023-03-20T18:15:02.596Z,90.28
2023-03-20T18:17:49.531Z,89.80
2023-03-20T18:20:39.619Z,89.99
2023-03-20T18:23:26.319Z,89.92
2023-03-20T18:26:30.237Z,89.96
2023-03-20T18:29:17.375Z,90.43
2023-03-20T18:32:03.803Z,90.83
2023-03-20T18:34:50.774Z,90.61
2023-03-20T18:37:38.226Z,90.91
2023-03-20T18:40:52.795Z,90.76
2023-03-20T18:43:40.684Z,90.93
2023-03-20T18:46:28.080Z,90.75
2023-03-20T18:49:19.098Z,90.30
2023-03-20T18:52:06.492Z,89.96
2023-03-20T18:54:53.495Z,89.87
2023-03-20T18:57:43.207Z,89.63
2023-03-20T19:00:42.427Z,89.23
2023-03-20T19:03:33.024Z,89.30
2023-03-20T19:06:23.202Z,89.04
2023-03-20T19:09:14.152Z,88.98
2023-03-20T19:12:04.568Z,88.61
2023-03-20T19:14:51.482Z,88.30
2023-03-20T19:17:38.868Z,87.78
2023-03-20T19:20:39.159Z,87.65
2023-03-20T19:23:29.192Z,87.28
2023-03-20T19:26:18.697Z,87.70
2023-03-20T19:29:09.558Z,87.58
2023-03-20T19:31:59.933Z,87.60
2023-03-20T19:35:38.607Z,87.29
2023-03-20T19:37:58.501Z,87.38
2023-03-20T19:40:53.581Z,87.17
2023-03-20T19:43:52.517Z,87.19
2023-03-20T19:46:49.204Z,86.91
2023-03-20T19:49:39.375Z,87.11
2023-03-20T19:52:33.017Z,87.16
2023-03-20T19:55:23.317Z,87.61
2023-03-20T19:58:13.801Z,87.74
2023-03-20T20:01:00.784Z,88.03
2023-03-20T20:03:49.881Z,88.53
2023-03-20T20:06:42.011Z,88.96
2023-03-20T20:09:52.435Z,88.84
2023-03-20T20:12:46.404Z,89.43
2023-03-20T20:15:38.702Z,89.72
2023-03-20T20:18:29.707Z,89.95
2023-03-20T20:24:28.353Z,89.90
2023-03-20T20:27:17.655Z,89.92
2023-03-20T20:30:11.029Z,90.21
2023-03-20T20:33:03.495Z,90.56
2023-03-20T20:36:26.932Z,90.81
2023-03-20T20:39:03.580Z,90.41
2023-03-20T20:42:03.063Z,91.69
2023-03-20T20:44:51.364Z,93.34
2023-03-20T20:48:18.064Z,95.15
2023-03-20T20:51:03.904Z,96.53
2023-03-20T20:53:49.718Z,97.76
2023-03-20T20:56:36.839Z,98.37
2023-03-20T20:59:25.629Z,99.42
2023-03-20T21:02:12.347Z,99.97
2023-03-20T21:05:01.036Z,99.99
2023-03-20T21:07:48.962Z,99.92
2023-03-20T21:10:34.681Z,99.90
2023-03-20T21:13:20.324Z,100.00
2023-03-20T21:16:07.458Z,100.00
2023-03-20T21:18:53.485Z,100.00
2023-03-20T21:21:40.682Z,100.00
2023-03-20T21:24:32.786Z,100.00
2023-03-20T21:27:23.438Z,100.00
2023-03-20T21:30:11.506Z,100.00
2023-03-20T21:32:58.574Z,100.00
2023-03-20T21:35:49.864Z,100.00
2023-03-20T21:41:42.129Z,100.00
2023-03-20T21:45:21.612Z,100.00
2023-03-20T21:51:15.196Z,100.00
2023-03-20T21:57:55.195Z,100.00
2023-03-20T22:03:38.561Z,100.00
2023-03-20T22:07:17.865Z,100.00
2023-03-20T22:10:10.945Z,100.00
2023-03-20T22:13:20.882Z,100.00
2023-03-20T22:32:02.166Z,99.93
2023-03-20T22:38:34.490Z,99.28
2023-03-20T22:47:08.647Z,99.27
2023-03-20T22:49:56.059Z,99.70
2023-03-20T22:52:49.180Z,99.56
2023-03-20T22:55:37.228Z,99.52
2023-03-20T22:58:24.967Z,99.54
2023-03-20T23:01:12.549Z,99.45
2023-03-20T23:04:00.338Z,99.53
2023-03-20T23:06:47.753Z,99.39
2023-03-20T23:09:34.814Z,99.62
2023-03-20T23:12:21.934Z,99.74
2023-03-20T23:15:09.822Z,99.58
2023-03-20T23:18:00.154Z,99.25
2023-03-20T23:20:48.053Z,99.57
2023-03-20T23:23:35.498Z,99.76
2023-03-20T23:27:01.832Z,99.73
2023-03-20T23:29:47.922Z,100.00
2023-03-20T23:32:37.538Z,99.98
2023-03-20T23:35:27.269Z,99.88
2023-03-20T23:38:14.588Z,99.99
2023-03-20T23:41:01.046Z,100.00
2023-03-20T23:43:46.396Z,99.99
2023-03-20T23:46:32.781Z,99.99
2023-03-20T23:49:19.184Z,99.90
2023-03-20T23:52:06.391Z,99.99
2023-03-20T23:54:52.281Z,99.97
2023-03-20T23:57:38.014Z,99.70
